Terminal Aerodrome Forecast
Issued by NWS

Home | Current Version | Previous Version | Text Only | Print | Product List | Glossary On
Versions: 1 2 3 4 5 6 7 8 9 10 11 12 13 14 15 16 17 18 19
000
FTUS41 KBTV 252320
TAFMSS
TAF
KMSS 252320Z 2600/2624 24009KT P6SM VCSH OVC040
     FM260900 25010G16KT 6SM -SHRA BR OVC025
     FM261500 27012G21KT P6SM OVC025=

USA.gov is the U.S. government's official web portal to all federal, state and local government web resources and services.